默认 日期 大小 文件数 浏览量 最新下载 xml
broadcast磁力链接相关资源由用户搜索指令自动获取,结果来源于网络,本站不存储任何资料,亦不承担任何责任,请于24小时内删除,搜索到3882个磁力,用时3ms。
    {"ffp.ffp": 864, "st5.st5": 1080, "INFO.txt": 1484, "ffp text.txt": 864, "st5 text.txt": 1080, "Track_01.flac": 16940410, "Track_02.flac": 22097474, "Track_03.flac": 26138903, "Track_04.flac": 27559229, "Track_05.flac": 26054964, "Track_06.flac": 29160384, ...
创建时间: 2019-05-15 06:41:20 大小:609.26 MB 文件数量:23 热度:14 最近下载:2025-05-08 02:28:02
    ... Eternity.flac": 45698841}, "Zagar - Local Broadcast (2002) [FLAC]": {"cover.jpg": 139736 ... , "PLAYLIST.m3u": 442, "Local Broadcast.cue": 2700, "Local Broadcast.log": 12619, "12 ...
创建时间: 2019-05-15 20:41:34 大小:1.33 GB 文件数量:44 热度:11 最近下载:2025-01-28 13:35:02
    {"tracked_by_h33t_com.txt": 185, "Torrent downloaded from AhaShare.com.txt": 58, "Torrent Downloaded From ExtraTorrent.cc.txt": 352, "Secure Broadcast Communication- In Wired and Wireless Networks.tgz": 9395251}
创建时间: 2019-05-16 01:41:49 大小:8.96 MB 文件数量:4 热度:5 最近下载:2025-02-06 14:36:01
    {"12.Drug Party.flac": 8013011, "20.What I Saw.flac": 4851554, "19.Royal Chant.flac": 9828607, "02.The Be Colony.flac": 24717952, "08.You Must Wake.flac": 6850324, "06.A Quiet Moment.flac": 2955890, "10.A Seancing Song.flac": 9859594, "16.A Medium's High. ...
创建时间: 2019-05-16 14:53:25 大小:236.44 MB 文件数量:23 热度:5 最近下载:2025-03-24 09:59:04
    ... ����@Barbara Broadcast 1080p BluRay.jpg": 191616, "� ... ����@Barbara Broadcast 1080p BluRay.mkv": 7042183580, "� ... ����@Barbara Broadcast 1080p BluRay a.jpg": 218258 ... ����@Barbara Broadcast 1080p BluRay b.jpg": 282025 ...
创建时间: 2019-05-16 21:44:24 大小:6.56 GB 文件数量:19 热度:118 最近下载:2025-10-11 18:40:02
    ... Mask text 01.mov": 25267420}, "Broadcast Pack.prproj": 219662}, "Website you ...
创建时间: 2019-05-18 15:48:50 大小:610.85 MB 文件数量:34 热度:3 最近下载:2021-06-17 16:25:58
    ... - Guardians Disassembled (2014) (Digital HC) (BroadCast-Empire).cbz": 333903752, "Guardians Of ...
创建时间: 2019-05-19 01:36:12 大小:1.13 GB 文件数量:4 热度:7 最近下载:2025-09-18 21:26:02
    {"05. Blue.wav": 39701806, "07. Speedo.wav": 9238702, "13. Pop It.wav": 30641902, "14. Street.wav": 32041342, "15. Phoney.wav": 18164542, "09. Hot Talk.wav": 24808942, "10. Get Lost.wav": 40299214, "12. Skid Row.wav": 40917790, "08. Crocodile.wav": ...
创建时间: 2019-05-19 07:36:45 大小:423.88 MB 文件数量:15 热度:4 最近下载:2024-08-27 12:22:01
    ... , "Peter Gabriel Werchterpark Werchter Belgium Broadcast July 3 1983 AT-247 ... , "Peter Gabriel Werchterpark Werchter Belgium Broadcast July 3 1983 AT-247 ...
创建时间: 2019-05-19 14:18:08 大小:393.83 MB 文件数量:16 热度:7 最近下载:2025-01-26 18:02:08
    {"cover.jpg": 49037, "cover2.jpg": 174718, "08 - Years (Live).mp3": 12596269, "06 - Patience (Live).mp3": 18916863, "07 - Civil War (Live).mp3": 23651297, "19 - Estranged (Live).mp3": 25166401, "04 - Dust N Bones (Live).mp3": 14355891, "10 - It's So Easy ( ...
创建时间: 2019-05-19 19:48:25 大小:311.26 MB 文件数量:24 热度:8 最近下载:2024-08-26 23:22:02
    ... Video+mp3 LIVE 3-hr Broadcast.txt": 6496}
创建时间: 2019-05-20 19:59:20 大小:1.19 GB 文件数量:29 热度:5 最近下载:2025-01-13 18:47:06
    ... Video+mp3 LIVE 3-hr Broadcast.txt": 6527}
创建时间: 2019-05-21 03:15:24 大小:1.32 GB 文件数量:32 热度:5 最近下载:2025-10-09 23:47:02
    {"NFO.txt": 1693, "torrent downloaded from demonoid.me.txt": 46, "markus_schulz_-_global_dj_broadcast-di.fm-net-2011-06-09-pm.mp3": 231589511}
创建时间: 2019-05-22 19:57:15 大小:220.86 MB 文件数量:3 热度:5 最近下载:2025-02-11 00:54:03
    ... Video+mp3 LIVE 3-hr Broadcast.txt": 6169}
创建时间: 2019-05-23 00:54:55 大小:2.31 GB 文件数量:28 热度:6 最近下载:2025-03-02 08:31:03
    {"D1": {"07-My Love.flac": 17631944, "09-Anytime.flac": 21138776, "11-Deportee.flac": 21365160, "02-Ukelele Lady.flac": 19466822, "08-Percy's Song.flac": 24114784, "05-No More Nukes.flac": 18404399, "03-Coopers Lament.flac": 19286593, "04-Acres Of Clams. ...
创建时间: 2019-05-23 08:30:49 大小:480.96 MB 文件数量:30 热度:13 最近下载:2025-08-18 17:46:02
    ... Video+mp3 LIVE 3-hr Broadcast.txt": 6394}
创建时间: 2019-05-23 09:50:52 大小:1.85 GB 文件数量:29 热度:7 最近下载:2025-10-09 23:47:03
    ... ": {"Documentation.pdf": 162661, "Fight Club Broadcast Pack User Guide.pdf": 489974 ...
创建时间: 2019-05-23 16:17:21 大小:526.34 MB 文件数量:484 热度:3 最近下载:2021-06-17 16:25:58
    {"Links_to_ALL_Torrents.html": 89235, "HD 2014-05-31 Philadelphia PA": {"1of3 2014-05-31 Philadelphia PA HD.mp4": 604570974, "2of3 2014-05-31 Philadelphia PA HD.mp4": 571268923, "3of3 2014-05-31 Philadelphia PA HB.mp4": 408536138}, "SD 2014-05-31 ...
创建时间: 2019-05-24 02:53:13 大小:2.24 GB 文件数量:30 热度:6 最近下载:2025-03-04 12:45:02
    {"info.txt": 1640, "cover.jpg": 807642, "02 - Say What.mp3": 13005584, "08 - Cold Shot.mp3": 14975218, "13 - Rude Mood.mp3": 10953406, "07 - Superstition.mp3": 12502996, "01 - Scuttle Buttin'.mp3": 8066365, "10 - Life Without You.mp3": 33803249, "12 - Love ...
创建时间: 2019-05-24 03:48:32 大小:184.85 MB 文件数量:15 热度:6 最近下载:2025-05-13 15:54:01
    {"VIDEO_TS": {"VIDEO_TS.BUP": 12288, "VIDEO_TS.IFO": 12288, "VIDEO_TS.VOB": 126976, "VTS_01_0.BUP": 40960, "VTS_01_0.IFO": 40960, "VTS_01_1.VOB": 1048791040, "VTS_01_2.VOB": 1048561664, "VTS_01_3.VOB": 661835776}, "Blur_Cologne_June16_1993.jpg": 597669}
创建时间: 2019-05-24 11:25:46 大小:2.57 GB 文件数量:9 热度:3 最近下载:2021-06-17 16:25:58